createdAt,value
2022-07-25T00:02:23.134Z,100727.38
2022-07-25T00:04:52.408Z,100723.79
2022-07-25T00:07:21.425Z,100726.50
2022-07-25T00:09:50.538Z,100722.59
2022-07-25T00:12:24.662Z,100719.95
2022-07-25T00:14:57.849Z,100721.61
2022-07-25T00:17:27.166Z,100718.27
2022-07-25T00:20:00.825Z,100718.44
2022-07-25T00:22:32.499Z,100715.43
2022-07-25T00:25:10.841Z,100713.17
2022-07-25T00:27:41.186Z,100709.33
2022-07-25T00:30:29.216Z,100710.56
2022-07-25T00:33:00.344Z,100710.12
2022-07-25T00:35:33.894Z,100706.93
2022-07-25T00:38:05.401Z,100703.73
2022-07-25T00:40:37.697Z,100703.20
2022-07-25T00:43:07.544Z,100702.64
2022-07-25T00:45:40.299Z,100700.29
2022-07-25T00:48:09.431Z,100695.99
2022-07-25T00:50:38.519Z,100696.85
2022-07-25T00:53:07.665Z,100697.17
2022-07-25T00:55:37.551Z,100694.91
2022-07-25T00:58:08.177Z,100696.81
2022-07-25T01:00:37.390Z,100700.02
2022-07-25T01:03:08.135Z,100702.54
2022-07-25T01:05:38.835Z,100702.37
2022-07-25T01:08:09.323Z,100701.66
2022-07-25T01:10:40.388Z,100703.14
2022-07-25T01:13:12.003Z,100699.73
2022-07-25T01:15:47.936Z,100698.02
2022-07-25T01:18:24.357Z,100696.94
2022-07-25T01:21:01.552Z,100696.39
2022-07-25T01:23:30.660Z,100697.21
2022-07-25T01:25:59.892Z,100692.27
2022-07-25T01:28:29.761Z,100688.53
2022-07-25T01:30:58.976Z,100685.34
2022-07-25T01:33:30.069Z,100681.55
2022-07-25T01:36:01.875Z,100677.81
2022-07-25T01:38:30.866Z,100676.32
2022-07-25T01:41:00.895Z,100673.94
2022-07-25T01:43:32.596Z,100673.59
2022-07-25T01:46:06.833Z,100670.41
2022-07-25T01:48:39.729Z,100668.80
2022-07-25T01:51:13.172Z,100664.12
2022-07-25T01:53:43.637Z,100664.83
2022-07-25T01:56:22.394Z,100663.95
2022-07-25T01:58:53.339Z,100663.65
2022-07-25T02:01:25.622Z,100661.42
2022-07-25T02:04:00.783Z,100659.73
2022-07-25T02:06:30.353Z,100656.65
2022-07-25T02:09:02.602Z,100658.77
2022-07-25T02:11:32.837Z,100661.06
2022-07-25T02:14:13.332Z,100662.58
2022-07-25T02:16:42.417Z,100662.84
2022-07-25T02:19:13.234Z,100660.97
2022-07-25T02:21:46.607Z,100660.93
2022-07-25T02:24:37.451Z,100661.23
2022-07-25T02:27:06.585Z,100660.54
2022-07-25T02:29:39.475Z,100661.70
2022-07-25T02:32:10.845Z,100665.14
2022-07-25T02:34:40.031Z,100662.02
2022-07-25T02:37:09.027Z,100664.82
2022-07-25T02:39:37.956Z,100664.83
2022-07-25T02:42:07.653Z,100665.85
2022-07-25T02:44:36.637Z,100662.35
2022-07-25T02:47:10.037Z,100660.46
2022-07-25T02:49:41.436Z,100658.90
2022-07-25T02:52:11.632Z,100658.11
2022-07-25T02:54:40.760Z,100649.30
2022-07-25T02:57:09.827Z,100649.79
2022-07-25T02:59:39.015Z,100654.58
2022-07-25T03:02:10.604Z,100655.05
2022-07-25T03:04:39.613Z,100655.87
2022-07-25T03:07:08.751Z,100656.54
2022-07-25T03:09:38.240Z,100648.23
2022-07-25T03:12:19.278Z,100647.61
2022-07-25T03:15:00.871Z,100648.64
2022-07-25T03:17:31.562Z,100647.33
2022-07-25T03:20:00.715Z,100647.63
2022-07-25T03:22:36.892Z,100643.98
2022-07-25T03:25:15.858Z,100641.98
2022-07-25T03:27:52.929Z,100644.90
2022-07-25T03:30:22.363Z,100647.66
2022-07-25T03:32:51.351Z,100646.91
2022-07-25T03:35:20.413Z,100646.97
2022-07-25T03:37:49.489Z,100647.84
2022-07-25T03:40:28.260Z,100650.02
2022-07-25T03:43:01.382Z,100650.35
2022-07-25T03:45:31.696Z,100648.61
2022-07-25T03:48:20.613Z,100651.08
2022-07-25T03:50:49.638Z,100650.27
2022-07-25T03:53:25.084Z,100646.54
2022-07-25T03:55:59.284Z,100652.83
2022-07-25T03:58:34.443Z,100653.33
2022-07-25T04:01:06.096Z,100650.97
2022-07-25T04:03:42.238Z,100650.62
2022-07-25T04:06:16.551Z,100645.77
2022-07-25T04:08:45.982Z,100645.73
2022-07-25T04:11:14.830Z,100642.42
2022-07-25T04:13:45.813Z,100640.02
2022-07-25T04:16:22.028Z,100640.64
2022-07-25T04:18:52.229Z,100640.14
2022-07-25T04:21:23.875Z,100634.55
2022-07-25T04:23:53.494Z,100634.77
2022-07-25T04:26:25.194Z,100631.70
2022-07-25T04:28:54.269Z,100626.56
2022-07-25T04:31:26.085Z,100625.21
2022-07-25T04:33:55.349Z,100622.30
2022-07-25T04:36:24.522Z,100622.41
2022-07-25T04:39:02.907Z,100621.54
2022-07-25T04:41:39.695Z,100620.73
2022-07-25T04:44:16.380Z,100619.25
2022-07-25T04:46:45.871Z,100614.25
2022-07-25T04:49:31.695Z,100612.54
2022-07-25T04:52:03.016Z,100613.99
2022-07-25T04:54:35.568Z,100614.45
2022-07-25T04:57:09.212Z,100613.11
2022-07-25T04:59:38.666Z,100608.22
2022-07-25T05:02:08.893Z,100606.60
2022-07-25T05:04:43.359Z,100601.91
2022-07-25T05:07:14.058Z,100595.95
2022-07-25T05:09:43.134Z,100596.17
2022-07-25T05:12:12.492Z,100589.52
2022-07-25T05:14:42.788Z,100586.86
2022-07-25T05:17:13.758Z,100583.24
2022-07-25T05:19:47.448Z,100584.45
2022-07-25T05:22:29.116Z,100585.27
2022-07-25T05:25:13.866Z,100584.20
2022-07-25T05:27:50.639Z,100581.20
2022-07-25T05:30:27.144Z,100582.27
2022-07-25T05:33:01.790Z,100582.70
2022-07-25T05:35:41.725Z,100580.85
2022-07-25T05:38:15.130Z,100581.11
2022-07-25T05:40:55.934Z,100581.69
2022-07-25T05:43:35.996Z,100577.36
2022-07-25T05:46:19.862Z,100573.11
2022-07-25T05:48:54.744Z,100568.73
2022-07-25T05:51:27.701Z,100567.06
2022-07-25T05:54:08.822Z,100572.41
2022-07-25T05:56:38.178Z,100573.45
2022-07-25T05:59:09.596Z,100577.08
2022-07-25T06:01:41.401Z,100574.25
2022-07-25T06:04:10.412Z,100572.35
2022-07-25T06:06:39.622Z,100572.06
2022-07-25T06:09:23.378Z,100569.30
2022-07-25T06:12:00.598Z,100568.83
2022-07-25T06:14:41.012Z,100571.86
2022-07-25T06:17:25.140Z,100575.69
2022-07-25T06:20:00.668Z,100574.73
2022-07-25T06:23:06.797Z,100569.02
2022-07-25T06:25:50.162Z,100565.38
2022-07-25T06:28:32.412Z,100557.85
2022-07-25T06:31:04.543Z,100552.23
2022-07-25T06:33:36.539Z,100550.77
2022-07-25T06:36:32.217Z,100543.61
2022-07-25T06:39:08.273Z,100549.64
2022-07-25T06:41:41.391Z,100550.27
2022-07-25T06:44:16.807Z,100540.89
2022-07-25T06:46:55.920Z,100541.38
2022-07-25T06:49:35.482Z,100538.42
2022-07-25T06:52:11.110Z,100533.69
2022-07-25T06:54:42.766Z,100532.14
2022-07-25T06:57:13.043Z,100533.05
2022-07-25T06:59:50.872Z,100525.51
2022-07-25T07:02:24.273Z,100524.75
2022-07-25T07:05:02.658Z,100520.95
2022-07-25T07:07:37.412Z,100519.88
2022-07-25T07:10:08.461Z,100519.95
2022-07-25T07:12:42.890Z,100517.77
2022-07-25T07:15:17.176Z,100512.06
2022-07-25T07:17:52.372Z,100504.73
2022-07-25T07:20:44.013Z,100502.55
2022-07-25T07:23:18.558Z,100499.98
2022-07-25T07:26:06.701Z,100499.01
2022-07-25T07:29:08.490Z,100494.48
2022-07-25T07:31:38.646Z,100490.57
2022-07-25T07:34:28.457Z,100489.54
2022-07-25T07:37:09.791Z,100489.93
2022-07-25T07:39:39.026Z,100489.44
2022-07-25T07:42:09.856Z,100490.33
2022-07-25T07:44:40.990Z,100483.73
2022-07-25T07:47:51.385Z,100486.90
2022-07-25T07:50:36.309Z,100483.18
2022-07-25T07:53:09.055Z,100476.96
2022-07-25T07:55:46.958Z,100475.84
2022-07-25T07:58:41.140Z,100470.09
2022-07-25T08:01:25.252Z,100466.30
2022-07-25T08:04:11.427Z,100465.09
2022-07-25T08:06:48.881Z,100459.04
2022-07-25T08:09:31.922Z,100460.17
2022-07-25T08:12:19.491Z,100458.58
2022-07-25T08:14:53.878Z,100455.28
2022-07-25T08:17:28.775Z,100454.52
2022-07-25T08:20:36.742Z,100450.83
2022-07-25T08:23:11.966Z,100446.75
2022-07-25T08:25:42.377Z,100445.59
2022-07-25T08:28:21.142Z,100446.45
2022-07-25T08:31:01.742Z,100445.55
2022-07-25T08:33:48.041Z,100444.66
2022-07-25T08:36:22.962Z,100439.69
2022-07-25T08:38:52.148Z,100438.17
2022-07-25T08:41:24.829Z,100439.38
2022-07-25T08:43:59.329Z,100434.38
2022-07-25T08:46:32.884Z,100434.08
2022-07-25T08:49:04.591Z,100430.17
2022-07-25T08:51:37.466Z,100431.33
2022-07-25T08:54:13.317Z,100431.55
2022-07-25T08:56:46.984Z,100426.30
2022-07-25T08:59:18.633Z,100425.64
2022-07-25T09:01:54.777Z,100425.50
2022-07-25T09:04:30.609Z,100419.63
2022-07-25T09:07:08.414Z,100417.38
2022-07-25T09:09:44.646Z,100416.35
2022-07-25T09:12:29.590Z,100411.21
2022-07-25T09:15:43.220Z,100408.89
2022-07-25T09:18:22.866Z,100411.63
2022-07-25T09:21:03.449Z,100408.38
2022-07-25T09:23:41.569Z,100402.41
2022-07-25T09:26:15.489Z,100399.41
2022-07-25T09:28:51.353Z,100400.64
2022-07-25T09:31:32.267Z,100399.27
2022-07-25T09:34:08.523Z,100402.90
2022-07-25T09:36:40.132Z,100397.19
2022-07-25T09:39:15.132Z,100399.58
2022-07-25T09:41:46.974Z,100398.84
2022-07-25T09:44:23.269Z,100393.48
2022-07-25T09:47:01.571Z,100393.30
2022-07-25T09:49:47.486Z,100392.64
2022-07-25T09:52:33.750Z,100388.27
2022-07-25T09:55:06.717Z,100382.66
2022-07-25T09:57:51.327Z,100377.68
2022-07-25T10:00:29.619Z,100372.63
2022-07-25T10:03:37.046Z,100373.19
2022-07-25T10:06:20.720Z,100372.21
2022-07-25T10:09:07.178Z,100370.78
2022-07-25T10:12:07.849Z,100364.71
2022-07-25T10:14:46.292Z,100363.30
2022-07-25T10:17:23.982Z,100363.48
2022-07-25T10:20:00.248Z,100357.22
2022-07-25T10:22:56.750Z,100355.34
2022-07-25T10:26:22.027Z,100354.78
2022-07-25T10:28:56.836Z,100350.13
2022-07-25T10:31:39.918Z,100346.09
2022-07-25T10:34:14.339Z,100347.14
2022-07-25T10:36:54.691Z,100341.75
2022-07-25T10:39:41.041Z,100343.14
2022-07-25T10:42:24.218Z,100341.89
2022-07-25T10:45:01.254Z,100334.95
2022-07-25T10:47:45.311Z,100330.57
2022-07-25T10:50:54.805Z,100326.13
2022-07-25T10:53:17.872Z,100322.05
2022-07-25T10:56:13.856Z,100315.62
2022-07-25T10:59:02.281Z,100308.69
2022-07-25T11:01:38.479Z,100305.60
2022-07-25T11:04:24.183Z,100299.52
2022-07-25T11:06:55.009Z,100292.73
2022-07-25T11:09:29.138Z,100291.14
2022-07-25T11:12:19.112Z,100290.13
2022-07-25T11:14:48.491Z,100286.67
2022-07-25T11:17:34.529Z,100278.05
2022-07-25T11:20:27.256Z,100273.74
2022-07-25T11:23:05.773Z,100268.05
2022-07-25T11:25:37.639Z,100265.54
2022-07-25T11:28:08.964Z,100261.95
2022-07-25T11:30:40.363Z,100257.08
2022-07-25T11:33:21.533Z,100252.27
2022-07-25T11:35:54.558Z,100250.67
2022-07-25T11:38:33.344Z,100248.13
2022-07-25T11:41:04.873Z,100240.06
2022-07-25T11:43:36.149Z,100242.92
2022-07-25T11:46:11.204Z,100231.35
2022-07-25T11:48:44.475Z,100227.51
2022-07-25T11:51:21.580Z,100222.04
2022-07-25T11:53:53.569Z,100217.58
2022-07-25T11:56:41.985Z,100217.48
2022-07-25T11:59:16.612Z,100216.11
2022-07-25T12:01:54.111Z,100209.75
2022-07-25T12:04:24.371Z,100204.04
2022-07-25T12:07:10.917Z,100193.95
2022-07-25T12:09:41.921Z,100188.88
2022-07-25T12:12:20.306Z,100187.75
2022-07-25T12:14:51.619Z,100183.37
2022-07-25T12:17:20.506Z,100184.41
2022-07-25T12:19:50.619Z,100176.52
2022-07-25T12:22:23.536Z,100167.66
2022-07-25T12:24:59.734Z,100165.57
2022-07-25T12:27:31.935Z,100160.95
2022-07-25T12:30:01.981Z,100156.73
2022-07-25T12:32:30.864Z,100151.70
2022-07-25T12:35:01.371Z,100151.12
2022-07-25T12:37:38.423Z,100150.23
2022-07-25T12:40:16.731Z,100147.23
2022-07-25T12:42:55.446Z,100144.40
2022-07-25T12:45:50.291Z,100143.04
2022-07-25T12:48:30.430Z,100143.30
2022-07-25T12:51:01.690Z,100141.20
2022-07-25T12:53:50.719Z,100137.52
2022-07-25T12:56:21.796Z,100137.33
2022-07-25T12:58:53.368Z,100129.33
2022-07-25T13:01:25.629Z,100127.27
2022-07-25T13:04:00.637Z,100122.96
2022-07-25T13:06:56.266Z,100119.35
2022-07-25T13:09:28.214Z,100118.19
2022-07-25T13:12:03.046Z,100111.95
2022-07-25T13:14:41.447Z,100102.42
2022-07-25T13:17:17.577Z,100100.08
2022-07-25T13:19:52.314Z,100099.67
2022-07-25T13:22:22.114Z,100097.67
2022-07-25T13:24:56.779Z,100093.77
2022-07-25T13:27:26.282Z,100088.04
2022-07-25T13:29:56.448Z,100085.39
2022-07-25T13:32:29.289Z,100083.20
2022-07-25T13:35:02.054Z,100080.23
2022-07-25T13:38:00.663Z,100074.30
2022-07-25T13:40:37.605Z,100071.98
2022-07-25T13:43:14.104Z,100069.38
2022-07-25T13:45:48.407Z,100065.58
2022-07-25T13:48:30.294Z,100060.06
2022-07-25T13:51:01.622Z,100060.96
2022-07-25T13:53:36.051Z,100054.60
2022-07-25T13:56:07.875Z,100047.96
2022-07-25T13:58:43.368Z,100044.98
2022-07-25T14:01:13.251Z,100044.48
2022-07-25T14:03:51.555Z,100040.58
2022-07-25T14:06:23.112Z,100039.45
2022-07-25T14:08:54.813Z,100031.09
2022-07-25T14:11:34.022Z,100023.96
2022-07-25T14:14:07.859Z,100016.18
2022-07-25T14:16:38.069Z,100020.13
2022-07-25T14:19:12.104Z,100018.68
2022-07-25T14:21:41.106Z,100015.39
2022-07-25T14:24:10.405Z,100012.52
2022-07-25T14:26:40.524Z,100007.96
2022-07-25T14:29:19.816Z,100003.03
2022-07-25T14:31:49.943Z,100001.31
2022-07-25T14:34:20.231Z,100000.73
2022-07-25T14:36:49.120Z,100003.66
2022-07-25T14:39:18.285Z,99999.99
2022-07-25T14:41:48.289Z,99997.05
2022-07-25T14:44:22.000Z,99990.20
2022-07-25T14:46:51.779Z,99991.73
2022-07-25T14:49:20.758Z,99982.58
2022-07-25T14:51:50.887Z,99979.39
2022-07-25T14:54:21.370Z,99973.40
2022-07-25T14:56:55.518Z,99969.44
2022-07-25T14:59:28.475Z,99968.10
2022-07-25T15:01:57.460Z,99960.92
2022-07-25T15:04:27.874Z,99951.35
2022-07-25T15:07:03.476Z,99946.91
2022-07-25T15:09:49.232Z,99943.73
2022-07-25T15:12:23.151Z,99945.98
2022-07-25T15:15:24.728Z,99945.86
2022-07-25T15:17:57.479Z,99940.45
2022-07-25T15:23:23.200Z,99930.34
2022-07-25T15:26:15.237Z,99926.30
2022-07-25T15:28:44.502Z,99927.66
2022-07-25T15:31:13.572Z,99925.29
2022-07-25T15:33:44.319Z,99923.41
2022-07-25T15:36:24.541Z,99917.69
2022-07-25T15:39:01.219Z,99917.30
2022-07-25T15:41:31.477Z,99912.76
2022-07-25T15:44:09.546Z,99911.21
2022-07-25T15:46:42.293Z,99906.44
2022-07-25T15:49:25.939Z,99905.38
2022-07-25T15:51:58.552Z,99895.70
2022-07-25T15:54:32.157Z,99891.16
2022-07-25T15:57:06.150Z,99890.25
2022-07-25T15:59:38.973Z,99888.91
2022-07-25T16:02:14.306Z,99884.60
2022-07-25T16:04:53.942Z,99885.23
2022-07-25T16:07:25.205Z,99883.08
2022-07-25T16:09:57.116Z,99883.56
2022-07-25T16:12:29.394Z,99883.73
2022-07-25T16:15:23.901Z,99883.66
2022-07-25T16:18:02.322Z,99884.82
2022-07-25T16:20:35.488Z,99882.64
2022-07-25T16:23:25.713Z,99880.72
2022-07-25T16:26:10.102Z,99878.12
2022-07-25T16:28:40.335Z,99874.86
2022-07-25T16:31:15.300Z,99873.07
2022-07-25T16:33:55.582Z,99869.81
2022-07-25T16:36:25.574Z,99866.21
2022-07-25T16:39:04.240Z,99862.17
2022-07-25T16:41:47.946Z,99858.55
2022-07-25T16:44:19.166Z,99859.00
2022-07-25T16:46:49.215Z,99857.89
2022-07-25T16:49:18.875Z,99847.84
2022-07-25T16:51:54.541Z,99846.61
2022-07-25T16:54:40.737Z,99843.45
2022-07-25T16:57:10.015Z,99843.33
2022-07-25T16:59:46.475Z,99837.92
2022-07-25T17:02:29.668Z,99834.35
2022-07-25T17:05:06.634Z,99834.86
2022-07-25T17:07:41.429Z,99831.16
2022-07-25T17:10:13.907Z,99835.42
2022-07-25T17:12:43.889Z,99831.11
2022-07-25T17:15:13.339Z,99829.37
2022-07-25T17:17:47.305Z,99825.66
2022-07-25T17:20:16.309Z,99824.31
2022-07-25T17:22:46.210Z,99817.63
2022-07-25T17:25:15.502Z,99814.99
2022-07-25T17:27:49.410Z,99812.75
2022-07-25T17:30:36.979Z,99812.02
2022-07-25T17:33:07.131Z,99811.61
2022-07-25T17:35:41.902Z,99809.81
2022-07-25T17:38:34.929Z,99805.56
2022-07-25T17:41:05.587Z,99805.63
2022-07-25T17:43:50.332Z,99799.06
2022-07-25T17:46:34.431Z,99794.34
2022-07-25T17:49:08.453Z,99795.64
2022-07-25T17:51:49.231Z,99791.23
2022-07-25T17:54:18.323Z,99785.39
2022-07-25T17:56:47.709Z,99782.19
2022-07-25T17:59:28.405Z,99779.40
2022-07-25T18:02:02.894Z,99774.70
2022-07-25T18:04:32.491Z,99770.80
2022-07-25T18:07:01.671Z,99771.23
2022-07-25T18:09:30.834Z,99768.88
2022-07-25T18:12:09.373Z,99767.77
2022-07-25T18:14:44.069Z,99763.86
2022-07-25T18:17:20.392Z,99759.92
2022-07-25T18:19:50.395Z,99755.01
2022-07-25T18:22:33.293Z,99753.82
2022-07-25T18:25:14.286Z,99754.23
2022-07-25T18:27:50.138Z,99752.45
2022-07-25T18:30:20.421Z,99751.75
2022-07-25T18:32:51.815Z,99752.33
2022-07-25T18:35:21.117Z,99753.23
2022-07-25T18:37:50.179Z,99749.84
2022-07-25T18:40:20.889Z,99746.45
2022-07-25T18:42:52.815Z,99749.26
2022-07-25T18:45:24.255Z,99752.10
2022-07-25T18:47:53.998Z,99753.57
2022-07-25T18:50:31.596Z,99752.34
2022-07-25T18:53:02.308Z,99754.91
2022-07-25T18:55:31.353Z,99754.16
2022-07-25T18:58:00.528Z,99757.72
2022-07-25T19:00:30.011Z,99760.53
2022-07-25T19:03:01.369Z,99760.39
2022-07-25T19:06:03.391Z,99756.66
2022-07-25T19:08:40.248Z,99750.27
2022-07-25T19:11:20.678Z,99752.53
2022-07-25T19:13:59.663Z,99753.02
2022-07-25T19:16:31.576Z,99752.55
2022-07-25T19:19:13.366Z,99755.13
2022-07-25T19:21:51.108Z,99756.38
2022-07-25T19:24:25.611Z,99752.83
2022-07-25T19:26:57.472Z,99755.31
2022-07-25T19:29:32.605Z,99755.39
2022-07-25T19:32:11.560Z,99751.79
2022-07-25T19:34:44.476Z,99752.36
2022-07-25T19:37:14.051Z,99754.30
2022-07-25T19:39:51.163Z,99760.31
2022-07-25T19:42:30.259Z,99757.33
2022-07-25T19:45:04.208Z,99756.02
2022-07-25T19:47:37.340Z,99753.48
2022-07-25T19:50:07.374Z,99757.23
2022-07-25T19:52:44.496Z,99759.29
2022-07-25T19:55:34.471Z,99759.84
2022-07-25T19:58:04.450Z,99762.41
2022-07-25T20:00:44.091Z,99764.50
2022-07-25T20:03:13.354Z,99769.91
2022-07-25T20:05:45.382Z,99769.97
2022-07-25T20:08:16.487Z,99768.28
2022-07-25T20:10:51.562Z,99773.96
2022-07-25T20:13:29.888Z,99775.52
2022-07-25T20:16:00.011Z,99774.59
2022-07-25T20:18:32.167Z,99771.69
2022-07-25T20:21:08.342Z,99775.33
2022-07-25T20:23:43.516Z,99778.30
2022-07-25T20:26:26.444Z,99778.36
2022-07-25T20:28:55.977Z,99775.91
2022-07-25T20:31:42.809Z,99767.14
2022-07-25T20:34:13.651Z,99764.20
2022-07-25T20:36:43.978Z,99767.05
2022-07-25T20:39:13.990Z,99764.65
2022-07-25T20:41:47.160Z,99762.14
2022-07-25T20:44:16.067Z,99760.98
2022-07-25T20:46:47.899Z,99761.27
2022-07-25T20:49:17.216Z,99760.70
2022-07-25T20:51:54.222Z,99757.65
2022-07-25T20:54:25.452Z,99761.23
2022-07-25T20:56:54.518Z,99760.39
2022-07-25T20:59:26.126Z,99755.40
2022-07-25T21:01:55.444Z,99753.58
2022-07-25T21:04:24.386Z,99750.46
2022-07-25T21:06:56.633Z,99754.36
2022-07-25T21:09:32.374Z,99755.14
2022-07-25T21:12:02.340Z,99753.23
2022-07-25T21:14:31.466Z,99751.46
2022-07-25T21:17:06.955Z,99750.65
2022-07-25T21:19:37.605Z,99749.31
2022-07-25T21:22:14.372Z,99744.06
2022-07-25T21:24:54.097Z,99738.73
2022-07-25T21:27:37.968Z,99738.09
2022-07-25T21:30:21.209Z,99732.45
2022-07-25T21:32:57.401Z,99731.42
2022-07-25T21:35:49.088Z,99725.65
2022-07-25T21:38:27.535Z,99716.27
2022-07-25T21:40:59.573Z,99713.20
2022-07-25T21:43:31.641Z,99710.29
2022-07-25T21:46:00.840Z,99705.12
2022-07-25T21:48:50.914Z,99707.33
2022-07-25T21:51:25.130Z,99704.15
2022-07-25T21:54:06.206Z,99699.80
2022-07-25T21:56:37.991Z,99694.52
2022-07-25T21:59:07.457Z,99691.88
2022-07-25T22:01:37.004Z,99686.32
2022-07-25T22:04:06.918Z,99683.46
2022-07-25T22:06:36.299Z,99680.66
2022-07-25T22:09:06.807Z,99682.75
2022-07-25T22:11:42.869Z,99674.16
2022-07-25T22:14:17.885Z,99668.38
2022-07-25T22:16:47.450Z,99665.63
2022-07-25T22:19:22.285Z,99662.29
2022-07-25T22:21:56.590Z,99664.23
2022-07-25T22:24:30.811Z,99662.62
2022-07-25T22:27:04.765Z,99666.34
2022-07-25T22:29:33.844Z,99667.26
2022-07-25T22:32:04.884Z,99664.55
2022-07-25T22:34:34.159Z,99662.84
2022-07-25T22:37:03.544Z,99661.21
2022-07-25T22:39:33.323Z,99660.73
2022-07-25T22:42:02.591Z,99656.63
2022-07-25T22:44:33.216Z,99659.80
2022-07-25T22:47:02.130Z,99659.76
2022-07-25T22:49:35.434Z,99658.89
2022-07-25T22:52:09.903Z,99650.96
2022-07-25T22:54:43.790Z,99645.58
2022-07-25T22:57:26.588Z,99643.57
2022-07-25T22:59:55.531Z,99639.63
2022-07-25T23:02:30.474Z,99642.55
2022-07-25T23:04:59.568Z,99631.07
2022-07-25T23:07:28.667Z,99628.11
2022-07-25T23:09:59.497Z,99623.84
2022-07-25T23:12:28.611Z,99615.15
2022-07-25T23:15:08.927Z,99607.98
2022-07-25T23:17:42.923Z,99606.82
2022-07-25T23:20:17.143Z,99606.39
2022-07-25T23:22:46.523Z,99603.16
2022-07-25T23:25:27.384Z,99602.83
2022-07-25T23:27:56.867Z,99601.91
2022-07-25T23:30:40.472Z,99599.10
2022-07-25T23:33:15.858Z,99597.21
2022-07-25T23:35:56.941Z,99597.33
2022-07-25T23:38:26.150Z,99595.54
2022-07-25T23:41:02.099Z,99594.63
2022-07-25T23:43:54.965Z,99599.04
2022-07-25T23:46:29.383Z,99607.23
2022-07-25T23:49:02.523Z,99607.61
2022-07-25T23:51:40.050Z,99611.98
2022-07-25T23:54:26.772Z,99609.77
2022-07-25T23:56:57.846Z,99607.42
2022-07-25T23:59:29.163Z,99606.23
